createdAt,value
2018-11-02T00:01:37.855Z,0.00
2018-11-02T00:02:37.824Z,0.00
2018-11-02T00:04:30.915Z,0.00
2018-11-02T00:05:30.881Z,0.00
2018-11-02T00:07:23.982Z,0.00
2018-11-02T00:08:23.959Z,0.00
2018-11-02T00:10:17.048Z,0.00
2018-11-02T00:11:17.048Z,0.00
2018-11-02T00:13:10.108Z,0.00
2018-11-02T00:14:10.068Z,0.00
2018-11-02T00:16:03.193Z,0.00
2018-11-02T00:17:03.163Z,0.00
2018-11-02T00:18:56.257Z,0.00
2018-11-02T00:19:56.226Z,0.00
2018-11-02T00:21:49.304Z,0.00
2018-11-02T00:22:49.279Z,0.00
2018-11-02T00:24:42.370Z,0.00
2018-11-02T00:25:42.352Z,0.00
2018-11-02T00:27:35.420Z,0.00
2018-11-02T00:28:35.412Z,0.00
2018-11-02T00:30:28.512Z,0.00
2018-11-02T00:31:28.460Z,0.00
2018-11-02T00:33:21.543Z,0.00
2018-11-02T00:34:21.513Z,0.00
2018-11-02T00:36:14.608Z,0.00
2018-11-02T00:37:14.573Z,0.00
2018-11-02T00:39:07.646Z,0.00
2018-11-02T00:40:07.623Z,0.00
2018-11-02T00:42:00.717Z,0.00
2018-11-02T00:43:00.685Z,0.00
2018-11-02T00:44:53.765Z,0.00
2018-11-02T00:45:53.750Z,0.00
2018-11-02T00:47:46.836Z,0.00
2018-11-02T00:48:46.792Z,0.00
2018-11-02T00:50:39.881Z,0.00
2018-11-02T00:51:39.853Z,0.00
2018-11-02T00:53:32.955Z,0.00
2018-11-02T00:54:32.910Z,0.00
2018-11-02T00:56:25.990Z,0.00
2018-11-02T00:57:25.963Z,0.00
2018-11-02T00:59:19.065Z,0.00
2018-11-02T01:00:19.025Z,0.00
2018-11-02T01:02:12.118Z,0.00
2018-11-02T01:03:12.099Z,0.00
2018-11-02T01:05:05.197Z,0.00
2018-11-02T01:06:05.149Z,0.00
2018-11-02T01:07:58.234Z,0.00
2018-11-02T01:08:58.210Z,0.00
2018-11-02T01:10:51.300Z,0.00
2018-11-02T01:11:51.273Z,0.00
2018-11-02T01:13:44.361Z,0.00
2018-11-02T01:14:44.329Z,0.00
2018-11-02T01:16:37.499Z,0.00
2018-11-02T01:17:37.398Z,0.00
2018-11-02T01:19:30.481Z,0.00
2018-11-02T01:20:30.458Z,0.00
2018-11-02T01:22:23.556Z,0.00
2018-11-02T01:23:23.521Z,0.00
2018-11-02T01:25:16.604Z,0.00
2018-11-02T01:26:16.578Z,0.00
2018-11-02T01:28:09.668Z,0.00
2018-11-02T01:29:09.639Z,0.00
2018-11-02T01:31:02.721Z,0.00
2018-11-02T01:32:02.693Z,0.00
2018-11-02T01:33:55.777Z,0.00
2018-11-02T01:34:55.749Z,0.00
2018-11-02T01:36:48.830Z,0.00
2018-11-02T01:37:48.801Z,0.00
2018-11-02T01:39:41.902Z,0.00
2018-11-02T01:40:41.876Z,0.00
2018-11-02T01:42:34.959Z,0.00
2018-11-02T01:43:34.928Z,0.00
2018-11-02T01:45:28.026Z,0.00
2018-11-02T01:46:27.986Z,0.00
2018-11-02T01:48:21.078Z,0.00
2018-11-02T01:49:21.041Z,0.00
2018-11-02T01:51:14.123Z,0.00
2018-11-02T01:52:14.093Z,0.00
2018-11-02T01:54:07.186Z,0.00
2018-11-02T01:55:07.152Z,0.00
2018-11-02T01:57:00.235Z,0.00
2018-11-02T01:58:00.204Z,0.00
2018-11-02T01:59:53.300Z,0.00
2018-11-02T02:00:53.268Z,0.00
2018-11-02T02:02:46.348Z,0.00
2018-11-02T02:03:46.316Z,0.00
2018-11-02T02:05:39.427Z,0.00
2018-11-02T02:06:39.392Z,0.00
2018-11-02T02:08:32.476Z,0.00
2018-11-02T02:09:32.464Z,0.00
2018-11-02T02:11:25.541Z,0.00
2018-11-02T02:12:25.507Z,0.00
2018-11-02T02:14:18.590Z,0.00
2018-11-02T02:15:18.564Z,0.00
2018-11-02T02:17:11.653Z,0.00
2018-11-02T02:18:11.619Z,0.00
2018-11-02T02:20:04.705Z,0.00
2018-11-02T02:21:04.678Z,0.00
2018-11-02T02:22:57.766Z,0.00
2018-11-02T02:23:57.734Z,0.00
2018-11-02T02:25:50.827Z,0.00
2018-11-02T02:26:50.795Z,0.00
2018-11-02T02:28:43.872Z,0.00
2018-11-02T02:29:43.848Z,0.00
2018-11-02T02:31:36.938Z,0.00
2018-11-02T02:32:36.900Z,0.00
2018-11-02T02:34:29.989Z,0.00
2018-11-02T02:35:29.964Z,0.00
2018-11-02T02:37:23.056Z,0.00
2018-11-02T02:38:23.020Z,0.00
2018-11-02T02:40:16.121Z,0.00
2018-11-02T02:41:16.081Z,0.00
2018-11-02T02:43:09.173Z,0.00
2018-11-02T02:44:09.160Z,0.00
2018-11-02T02:46:02.222Z,0.00
2018-11-02T02:47:02.194Z,0.00
2018-11-02T02:48:55.285Z,0.00
2018-11-02T02:49:55.250Z,0.00
2018-11-02T02:51:48.329Z,0.00
2018-11-02T02:52:48.305Z,0.00
2018-11-02T02:54:41.390Z,0.00
2018-11-02T02:55:41.359Z,0.00
2018-11-02T02:57:34.442Z,0.00
2018-11-02T02:58:34.418Z,0.00
2018-11-02T03:00:27.509Z,0.00
2018-11-02T03:01:27.477Z,0.00
2018-11-02T03:03:20.558Z,0.00
2018-11-02T03:04:20.528Z,0.00
2018-11-02T03:06:13.608Z,0.00
2018-11-02T03:07:13.581Z,0.00
2018-11-02T03:09:06.679Z,0.00
2018-11-02T03:10:06.642Z,0.00
2018-11-02T03:11:59.720Z,0.00
2018-11-02T03:12:59.706Z,0.00
2018-11-02T03:14:52.786Z,0.00
2018-11-02T03:15:52.759Z,0.00
2018-11-02T03:17:45.833Z,0.00
2018-11-02T03:18:45.865Z,0.00
2018-11-02T03:20:38.899Z,0.00
2018-11-02T03:21:38.867Z,0.00
2018-11-02T03:23:31.949Z,0.00
2018-11-02T03:24:31.922Z,0.00
2018-11-02T03:26:25.010Z,0.00
2018-11-02T03:27:24.977Z,0.00
2018-11-02T03:29:18.056Z,0.00
2018-11-02T03:30:18.034Z,0.00
2018-11-02T03:32:11.163Z,0.00
2018-11-02T03:33:11.133Z,0.00
2018-11-02T03:35:04.227Z,0.00
2018-11-02T03:36:04.189Z,0.00
2018-11-02T03:37:57.273Z,0.00
2018-11-02T03:38:57.251Z,0.00
2018-11-02T03:40:50.338Z,0.00
2018-11-02T03:41:50.304Z,0.00
2018-11-02T03:43:43.385Z,0.00
2018-11-02T03:44:43.361Z,0.00
2018-11-02T03:46:36.456Z,0.00
2018-11-02T03:47:36.420Z,0.00
2018-11-02T03:49:29.509Z,0.00
2018-11-02T03:50:29.480Z,0.00
2018-11-02T03:52:22.596Z,0.00
2018-11-02T03:53:22.541Z,0.00
2018-11-02T03:55:15.668Z,0.00
2018-11-02T03:56:15.614Z,0.00
2018-11-02T03:58:08.691Z,0.00
2018-11-02T03:59:08.666Z,0.00
2018-11-02T04:01:01.756Z,0.00
2018-11-02T04:02:01.723Z,0.00
2018-11-02T04:03:54.803Z,0.00
2018-11-02T04:04:54.779Z,0.00
2018-11-02T04:06:47.866Z,0.00
2018-11-02T04:07:47.859Z,0.00
2018-11-02T04:09:40.980Z,0.00
2018-11-02T04:10:40.893Z,0.00
2018-11-02T04:12:34.679Z,0.00
2018-11-02T04:13:33.958Z,0.00
2018-11-02T04:15:27.042Z,0.00
2018-11-02T04:16:27.017Z,0.00
2018-11-02T04:18:20.105Z,0.00
2018-11-02T04:19:20.073Z,0.00
2018-11-02T04:21:13.176Z,0.00
2018-11-02T04:22:13.143Z,0.00
2018-11-02T04:24:06.224Z,0.00
2018-11-02T04:25:06.219Z,0.00
2018-11-02T04:26:59.290Z,0.00
2018-11-02T04:27:59.260Z,0.00
2018-11-02T04:29:52.340Z,0.00
2018-11-02T04:30:52.369Z,0.00
2018-11-02T04:32:45.405Z,0.00
2018-11-02T04:33:45.373Z,0.00
2018-11-02T04:35:38.456Z,0.00
2018-11-02T04:36:38.430Z,0.00
2018-11-02T04:38:31.523Z,0.00
2018-11-02T04:39:31.488Z,0.00
2018-11-02T04:41:24.579Z,0.00
2018-11-02T04:42:24.545Z,0.00
2018-11-02T04:44:17.632Z,0.00
2018-11-02T04:45:17.605Z,0.00
2018-11-02T04:47:10.700Z,0.00
2018-11-02T04:48:10.705Z,0.00
2018-11-02T04:50:03.749Z,0.00
2018-11-02T04:51:03.806Z,0.00
2018-11-02T04:52:56.821Z,0.00
2018-11-02T04:53:56.793Z,0.00
2018-11-02T04:55:49.870Z,0.00
2018-11-02T04:56:49.852Z,0.00
2018-11-02T04:58:42.935Z,0.00
2018-11-02T04:59:42.903Z,0.00
2018-11-02T05:01:35.993Z,0.00
2018-11-02T05:02:35.960Z,0.00
2018-11-02T05:04:29.042Z,0.00
2018-11-02T05:05:29.016Z,0.00
2018-11-02T05:07:22.111Z,0.00
2018-11-02T05:08:22.083Z,0.00
2018-11-02T05:10:15.166Z,0.00
2018-11-02T05:11:15.204Z,0.00
2018-11-02T05:13:08.250Z,0.00
2018-11-02T05:14:08.201Z,0.00
2018-11-02T05:16:01.285Z,0.00
2018-11-02T05:17:01.257Z,0.00
2018-11-02T05:18:54.348Z,0.00
2018-11-02T05:19:54.312Z,0.00
2018-11-02T05:21:47.409Z,0.00
2018-11-02T05:22:47.374Z,0.00
2018-11-02T05:24:40.455Z,0.00
2018-11-02T05:25:40.432Z,0.00
2018-11-02T05:27:33.523Z,0.00
2018-11-02T05:28:33.487Z,0.00
2018-11-02T05:30:26.575Z,0.00
2018-11-02T05:31:26.551Z,0.00
2018-11-02T05:33:19.639Z,0.00
2018-11-02T05:34:19.621Z,0.00
2018-11-02T05:36:12.688Z,0.00
2018-11-02T05:37:12.662Z,0.00
2018-11-02T05:39:05.760Z,0.00
2018-11-02T05:40:05.721Z,0.00
2018-11-02T05:41:58.810Z,0.00
2018-11-02T05:42:58.774Z,0.00
2018-11-02T05:44:51.884Z,0.00
2018-11-02T05:45:51.834Z,0.00
2018-11-02T05:47:44.923Z,0.00
2018-11-02T05:48:44.915Z,0.00
2018-11-02T05:50:37.971Z,0.00
2018-11-02T05:51:37.947Z,0.00
2018-11-02T05:53:31.034Z,0.00
2018-11-02T05:54:31.065Z,0.00
2018-11-02T05:56:24.090Z,0.00
2018-11-02T05:57:24.061Z,0.00
2018-11-02T05:59:17.153Z,0.00
2018-11-02T06:00:17.121Z,0.00
2018-11-02T06:02:10.219Z,0.00
2018-11-02T06:03:10.187Z,0.00
2018-11-02T06:05:03.271Z,0.00
2018-11-02T06:06:03.251Z,0.00
2018-11-02T06:07:56.450Z,0.00
2018-11-02T06:08:56.311Z,0.00
2018-11-02T06:10:49.389Z,0.00
2018-11-02T06:11:49.362Z,0.00
2018-11-02T06:13:42.454Z,0.00
2018-11-02T06:14:42.422Z,0.00
2018-11-02T06:16:35.554Z,0.00
2018-11-02T06:17:35.497Z,0.00
2018-11-02T06:19:28.568Z,0.00
2018-11-02T06:20:28.536Z,0.00
2018-11-02T06:22:21.625Z,5.63
2018-11-02T06:23:21.593Z,5.63
2018-11-02T06:25:14.674Z,5.63
2018-11-02T06:26:14.653Z,5.63
2018-11-02T06:28:07.747Z,5.63
2018-11-02T06:29:07.711Z,5.63
2018-11-02T06:31:00.789Z,5.63
2018-11-02T06:32:00.777Z,5.63
2018-11-02T06:33:53.856Z,5.63
2018-11-02T06:34:53.824Z,5.63
2018-11-02T06:36:46.909Z,5.63
2018-11-02T06:37:46.882Z,5.63
2018-11-02T06:39:39.981Z,5.63
2018-11-02T06:40:39.945Z,11.25
2018-11-02T06:42:33.035Z,11.25
2018-11-02T06:43:33.005Z,11.25
2018-11-02T06:45:26.089Z,11.25
2018-11-02T06:46:26.065Z,11.25
2018-11-02T06:48:19.159Z,11.25
2018-11-02T06:49:19.125Z,16.88
2018-11-02T06:51:12.213Z,16.88
2018-11-02T06:52:12.193Z,22.50
2018-11-02T06:54:05.276Z,22.50
2018-11-02T06:55:05.243Z,22.50
2018-11-02T06:56:58.326Z,22.50
2018-11-02T06:57:58.301Z,22.50
2018-11-02T06:59:51.625Z,33.75
2018-11-02T07:00:51.392Z,39.38
2018-11-02T07:02:44.458Z,39.38
2018-11-02T07:03:44.420Z,39.38
2018-11-02T07:05:37.510Z,33.75
2018-11-02T07:06:37.479Z,45.00
2018-11-02T07:08:30.653Z,50.63
2018-11-02T07:09:30.541Z,45.00
2018-11-02T07:11:23.623Z,45.00
2018-11-02T07:12:23.599Z,45.00
2018-11-02T07:14:16.712Z,45.00
2018-11-02T07:15:16.662Z,50.63
2018-11-02T07:17:09.748Z,56.25
2018-11-02T07:18:09.744Z,56.25
2018-11-02T07:20:02.820Z,61.88
2018-11-02T07:21:02.790Z,61.88
2018-11-02T07:22:55.882Z,61.88
2018-11-02T07:23:55.861Z,61.88
2018-11-02T07:25:48.960Z,73.13
2018-11-02T07:26:48.926Z,78.75
2018-11-02T07:28:42.028Z,61.88
2018-11-02T07:29:42.005Z,67.50
2018-11-02T07:31:35.095Z,90.00
2018-11-02T07:32:35.074Z,84.38
2018-11-02T07:34:28.233Z,101.25
2018-11-02T07:35:28.150Z,95.63
2018-11-02T07:37:21.239Z,112.50
2018-11-02T07:38:21.218Z,106.88
2018-11-02T07:40:14.322Z,106.88
2018-11-02T07:41:14.294Z,101.25
2018-11-02T07:43:07.393Z,95.63
2018-11-02T07:44:07.372Z,95.63
2018-11-02T07:46:00.470Z,95.63
2018-11-02T07:47:00.445Z,95.63
2018-11-02T07:48:53.551Z,95.63
2018-11-02T07:49:53.528Z,95.63
2018-11-02T07:51:46.626Z,95.63
2018-11-02T07:52:46.617Z,95.63
2018-11-02T07:54:39.714Z,95.63
2018-11-02T07:55:39.688Z,101.25
2018-11-02T07:57:32.784Z,106.88
2018-11-02T07:58:32.768Z,112.50
2018-11-02T08:00:25.871Z,106.88
2018-11-02T08:01:25.846Z,95.63
2018-11-02T08:03:18.944Z,95.63
2018-11-02T08:04:18.927Z,95.63
2018-11-02T08:06:12.036Z,95.63
2018-11-02T08:07:12.079Z,95.63
2018-11-02T08:09:05.107Z,95.63
2018-11-02T08:10:05.086Z,95.63
2018-11-02T08:11:58.188Z,95.63
2018-11-02T08:12:58.166Z,95.63
2018-11-02T08:14:51.274Z,95.63
2018-11-02T08:15:51.249Z,95.63
2018-11-02T08:17:44.407Z,95.63
2018-11-02T08:18:44.334Z,95.63
2018-11-02T08:20:37.440Z,95.63
2018-11-02T08:21:37.415Z,95.63
2018-11-02T08:23:30.520Z,95.63
2018-11-02T08:24:30.517Z,95.63
2018-11-02T08:26:23.614Z,95.63
2018-11-02T08:27:23.590Z,95.63
2018-11-02T08:29:16.694Z,95.63
2018-11-02T08:30:16.702Z,95.63
2018-11-02T08:32:09.915Z,95.63
2018-11-02T08:33:09.768Z,95.63
2018-11-02T08:35:02.875Z,95.63
2018-11-02T08:36:02.851Z,95.63
2018-11-02T08:37:55.947Z,95.63
2018-11-02T08:38:55.932Z,95.63
2018-11-02T08:40:49.039Z,101.25
2018-11-02T08:41:49.020Z,101.25
2018-11-02T08:43:42.135Z,101.25
2018-11-02T08:44:42.108Z,101.25
2018-11-02T08:46:35.289Z,101.25
2018-11-02T08:47:35.209Z,101.25
2018-11-02T08:49:28.309Z,101.25
2018-11-02T08:50:28.298Z,101.25
2018-11-02T08:52:21.452Z,101.25
2018-11-02T08:53:21.388Z,101.25
2018-11-02T08:55:14.498Z,101.25
2018-11-02T08:56:14.476Z,101.25
2018-11-02T08:58:07.834Z,101.25
2018-11-02T08:59:07.636Z,101.25
2018-11-02T09:01:00.684Z,101.25
2018-11-02T09:02:00.658Z,101.25
2018-11-02T09:03:53.769Z,101.25
2018-11-02T09:04:53.797Z,101.25
2018-11-02T09:06:46.870Z,101.25
2018-11-02T09:07:46.839Z,101.25
2018-11-02T09:09:39.941Z,101.25
2018-11-02T09:10:39.922Z,101.25
2018-11-02T09:12:33.032Z,101.25
2018-11-02T09:13:33.011Z,101.25
2018-11-02T09:15:26.115Z,101.25
2018-11-02T09:16:26.098Z,101.25
2018-11-02T09:18:19.213Z,101.25
2018-11-02T09:19:19.258Z,101.25
2018-11-02T09:21:12.291Z,101.25
2018-11-02T09:22:12.278Z,101.25
2018-11-02T09:24:05.392Z,101.25
2018-11-02T09:25:05.369Z,101.25
2018-11-02T09:26:58.510Z,101.25
2018-11-02T09:27:58.483Z,101.25
2018-11-02T09:29:51.573Z,101.25
2018-11-02T09:30:51.599Z,101.25
2018-11-02T09:32:44.655Z,101.25
2018-11-02T09:33:44.639Z,101.25
2018-11-02T09:35:37.761Z,101.25
2018-11-02T09:36:37.732Z,101.25
2018-11-02T09:38:30.840Z,106.88
2018-11-02T09:39:30.828Z,106.88
2018-11-02T09:41:23.969Z,106.88
2018-11-02T09:42:23.949Z,106.88
2018-11-02T09:44:17.021Z,106.88
2018-11-02T09:45:17.007Z,106.88
2018-11-02T09:47:10.142Z,106.88
2018-11-02T09:48:10.099Z,106.88
2018-11-02T09:50:03.206Z,106.88
2018-11-02T09:51:03.193Z,101.25
2018-11-02T09:52:56.314Z,106.88
2018-11-02T09:53:56.306Z,106.88
2018-11-02T09:55:49.412Z,106.88
2018-11-02T09:56:49.396Z,106.88
2018-11-02T09:58:42.515Z,95.63
2018-11-02T09:59:42.493Z,101.25
2018-11-02T10:01:35.592Z,101.25
2018-11-02T10:02:35.580Z,106.88
2018-11-02T10:04:28.701Z,106.88
2018-11-02T10:05:28.672Z,106.88
2018-11-02T10:07:21.778Z,106.88
2018-11-02T10:08:21.831Z,106.88
2018-11-02T10:10:14.885Z,101.25
2018-11-02T10:11:14.863Z,101.25
2018-11-02T10:13:07.976Z,101.25
2018-11-02T10:14:07.954Z,101.25
2018-11-02T10:16:01.077Z,101.25
2018-11-02T10:17:01.052Z,101.25
2018-11-02T10:18:54.159Z,101.25
2018-11-02T10:19:54.143Z,101.25
2018-11-02T10:21:47.258Z,101.25
2018-11-02T10:22:47.236Z,101.25
2018-11-02T10:24:40.348Z,101.25
2018-11-02T10:25:40.335Z,101.25
2018-11-02T10:27:33.464Z,101.25
2018-11-02T10:28:33.424Z,101.25
2018-11-02T10:30:26.541Z,101.25
2018-11-02T10:31:26.524Z,101.25
2018-11-02T10:33:19.647Z,95.63
2018-11-02T10:34:19.623Z,95.63
2018-11-02T10:36:12.721Z,101.25
2018-11-02T10:37:12.707Z,101.25
2018-11-02T10:39:05.826Z,101.25
2018-11-02T10:40:05.815Z,95.63
2018-11-02T10:41:58.909Z,95.63
2018-11-02T10:42:58.893Z,95.63
2018-11-02T10:44:52.073Z,95.63
2018-11-02T10:45:51.991Z,101.25
2018-11-02T10:47:45.101Z,101.25
2018-11-02T10:48:45.294Z,84.38
2018-11-02T10:50:38.210Z,84.38
2018-11-02T10:51:38.182Z,84.38
2018-11-02T10:53:31.288Z,78.75
2018-11-02T10:54:31.340Z,78.75
2018-11-02T10:56:24.429Z,90.00
2018-11-02T10:57:24.366Z,84.38
2018-11-02T10:59:17.471Z,101.25
2018-11-02T11:00:17.455Z,95.63
2018-11-02T11:02:10.580Z,90.00
2018-11-02T11:03:10.559Z,90.00
2018-11-02T11:05:03.665Z,95.63
2018-11-02T11:06:03.650Z,95.63
2018-11-02T11:07:56.770Z,106.88
2018-11-02T11:08:56.737Z,106.88
2018-11-02T11:10:49.838Z,106.88
2018-11-02T11:11:50.053Z,106.88
2018-11-02T11:13:43.404Z,106.88
2018-11-02T11:14:42.910Z,106.88
2018-11-02T11:16:36.010Z,106.88
2018-11-02T11:17:35.995Z,106.88
2018-11-02T11:19:29.102Z,106.88
2018-11-02T11:20:29.083Z,106.88
2018-11-02T11:22:22.180Z,118.13
2018-11-02T11:23:22.164Z,123.75
2018-11-02T11:25:15.279Z,129.38
2018-11-02T11:26:15.250Z,135.00
2018-11-02T11:28:08.351Z,135.00
2018-11-02T11:29:08.354Z,129.38
2018-11-02T11:31:01.452Z,129.38
2018-11-02T11:32:01.423Z,123.75
2018-11-02T11:33:54.547Z,118.13
2018-11-02T11:34:54.520Z,112.50
2018-11-02T11:36:47.656Z,118.13
2018-11-02T11:37:47.615Z,106.88
2018-11-02T11:39:40.717Z,101.25
2018-11-02T11:40:40.695Z,106.88
2018-11-02T11:42:33.804Z,101.25
2018-11-02T11:43:33.782Z,101.25
2018-11-02T11:45:26.884Z,101.25
2018-11-02T11:46:26.866Z,101.25
2018-11-02T11:48:19.983Z,90.00
2018-11-02T11:49:20.041Z,90.00
2018-11-02T11:51:13.055Z,84.38
2018-11-02T11:52:13.038Z,84.38
2018-11-02T11:54:06.146Z,84.38
2018-11-02T11:55:06.117Z,84.38
2018-11-02T11:56:59.225Z,101.25
2018-11-02T11:57:59.208Z,90.00
2018-11-02T11:59:52.314Z,101.25
2018-11-02T12:00:52.298Z,101.25
2018-11-02T12:02:45.393Z,101.25
2018-11-02T12:03:45.377Z,101.25
2018-11-02T12:05:38.492Z,101.25
2018-11-02T12:06:38.463Z,101.25
2018-11-02T12:08:31.572Z,106.88
2018-11-02T12:09:31.555Z,106.88
2018-11-02T12:11:24.663Z,106.88
2018-11-02T12:12:24.638Z,106.88
2018-11-02T12:14:17.738Z,106.88
2018-11-02T12:15:17.726Z,106.88
2018-11-02T12:17:10.843Z,106.88
2018-11-02T12:18:10.811Z,106.88
2018-11-02T12:20:03.912Z,106.88
2018-11-02T12:21:03.897Z,106.88
2018-11-02T12:22:57.015Z,112.50
2018-11-02T12:23:56.987Z,118.13
2018-11-02T12:25:50.087Z,123.75
2018-11-02T12:26:50.068Z,123.75
2018-11-02T12:28:43.271Z,123.75
2018-11-02T12:29:43.157Z,123.75
2018-11-02T12:31:36.266Z,123.75
2018-11-02T12:32:36.245Z,118.13
2018-11-02T12:34:29.358Z,112.50
2018-11-02T12:35:29.331Z,118.13
2018-11-02T12:37:22.434Z,118.13
2018-11-02T12:38:22.414Z,118.13
2018-11-02T12:40:15.529Z,123.75
2018-11-02T12:41:15.501Z,129.38
2018-11-02T12:43:08.643Z,118.13
2018-11-02T12:44:08.590Z,118.13
2018-11-02T12:46:01.701Z,112.50
2018-11-02T12:47:01.675Z,112.50
2018-11-02T12:48:54.931Z,101.25
2018-11-02T12:49:54.976Z,106.88
2018-11-02T12:51:47.881Z,112.50
2018-11-02T12:52:47.851Z,118.13
2018-11-02T12:54:40.946Z,135.00
2018-11-02T12:55:40.933Z,135.00
2018-11-02T12:57:34.157Z,112.50
2018-11-02T12:58:34.017Z,106.88
2018-11-02T13:00:27.123Z,106.88
2018-11-02T13:01:27.103Z,112.50
2018-11-02T13:03:20.214Z,112.50
2018-11-02T13:04:20.187Z,106.88
2018-11-02T13:06:13.286Z,118.13
2018-11-02T13:07:13.276Z,118.13
2018-11-02T13:09:06.384Z,129.38
2018-11-02T13:10:06.356Z,135.00
2018-11-02T13:11:59.461Z,146.25
2018-11-02T13:12:59.445Z,140.63
2018-11-02T13:14:52.564Z,118.13
2018-11-02T13:15:52.552Z,112.50
2018-11-02T13:17:45.641Z,101.25
2018-11-02T13:18:45.657Z,101.25
2018-11-02T13:20:38.734Z,90.00
2018-11-02T13:21:38.784Z,84.38
2018-11-02T13:23:31.810Z,84.38
2018-11-02T13:24:31.797Z,78.75
2018-11-02T13:26:24.993Z,78.75
2018-11-02T13:27:24.881Z,84.38
2018-11-02T13:29:17.985Z,84.38
2018-11-02T13:30:18.158Z,84.38
2018-11-02T13:32:11.087Z,90.00
2018-11-02T13:33:11.064Z,90.00
2018-11-02T13:35:04.165Z,95.63
2018-11-02T13:36:04.144Z,90.00
2018-11-02T13:37:57.252Z,95.63
2018-11-02T13:38:57.235Z,90.00
2018-11-02T13:40:50.329Z,95.63
2018-11-02T13:41:50.310Z,95.63
2018-11-02T13:43:43.606Z,95.63
2018-11-02T13:44:43.392Z,95.63
2018-11-02T13:46:36.492Z,90.00
2018-11-02T13:47:36.475Z,90.00
2018-11-02T13:49:29.586Z,90.00
2018-11-02T13:50:29.580Z,95.63
2018-11-02T13:52:22.661Z,90.00
2018-11-02T13:53:22.643Z,90.00
2018-11-02T13:55:15.747Z,90.00
2018-11-02T13:56:15.723Z,90.00
2018-11-02T13:58:08.822Z,95.63
2018-11-02T13:59:08.807Z,95.63
2018-11-02T14:01:01.961Z,95.63
2018-11-02T14:02:01.885Z,95.63
2018-11-02T14:03:54.982Z,84.38
2018-11-02T14:04:54.968Z,78.75
2018-11-02T14:06:48.084Z,73.13
2018-11-02T14:07:48.047Z,73.13
2018-11-02T14:09:41.147Z,78.75
2018-11-02T14:10:41.197Z,78.75
2018-11-02T14:12:34.246Z,78.75
2018-11-02T14:13:34.222Z,78.75
2018-11-02T14:15:27.321Z,78.75
2018-11-02T14:16:27.301Z,78.75
2018-11-02T14:18:20.473Z,73.13
2018-11-02T14:19:20.387Z,73.13
2018-11-02T14:21:13.480Z,78.75
2018-11-02T14:22:13.466Z,78.75
2018-11-02T14:24:06.572Z,78.75
2018-11-02T14:25:06.546Z,73.13
2018-11-02T14:26:59.639Z,73.13
2018-11-02T14:27:59.620Z,73.13
2018-11-02T14:29:52.740Z,73.13
2018-11-02T14:30:52.710Z,73.13
2018-11-02T14:32:45.808Z,73.13
2018-11-02T14:33:45.791Z,73.13
2018-11-02T14:35:38.898Z,67.50
2018-11-02T14:36:38.876Z,61.88
2018-11-02T14:38:31.974Z,50.63
2018-11-02T14:39:31.955Z,50.63
2018-11-02T14:41:25.146Z,50.63
2018-11-02T14:42:25.037Z,45.00
2018-11-02T14:44:18.131Z,45.00
2018-11-02T14:45:18.110Z,45.00
2018-11-02T14:47:11.224Z,45.00
2018-11-02T14:48:11.192Z,39.38
2018-11-02T14:50:04.290Z,39.38
2018-11-02T14:51:04.275Z,39.38
2018-11-02T14:52:57.378Z,39.38
2018-11-02T14:53:57.359Z,39.38
2018-11-02T14:55:50.445Z,39.38
2018-11-02T14:56:50.427Z,39.38
2018-11-02T14:58:43.536Z,39.38
2018-11-02T14:59:43.624Z,39.38
2018-11-02T15:01:36.598Z,45.00
2018-11-02T15:02:36.581Z,45.00
2018-11-02T15:04:29.692Z,45.00
2018-11-02T15:05:29.656Z,45.00
2018-11-02T15:07:22.759Z,39.38
2018-11-02T15:08:22.732Z,33.75
2018-11-02T15:10:15.839Z,28.13
2018-11-02T15:11:15.860Z,28.13
2018-11-02T15:13:08.906Z,28.13
2018-11-02T15:14:08.883Z,28.13
2018-11-02T15:16:02.002Z,22.50
2018-11-02T15:17:01.972Z,22.50
2018-11-02T15:18:55.060Z,22.50
2018-11-02T15:19:55.043Z,22.50
2018-11-02T15:21:48.147Z,22.50
2018-11-02T15:22:48.115Z,22.50
2018-11-02T15:24:41.216Z,16.88
2018-11-02T15:25:41.195Z,16.88
2018-11-02T15:27:34.294Z,16.88
2018-11-02T15:28:34.267Z,11.25
2018-11-02T15:30:27.371Z,11.25
2018-11-02T15:31:27.356Z,11.25
2018-11-02T15:33:20.459Z,11.25
2018-11-02T15:34:20.426Z,11.25
2018-11-02T15:36:13.522Z,11.25
2018-11-02T15:37:13.500Z,11.25
2018-11-02T15:39:06.611Z,5.63
2018-11-02T15:40:06.572Z,5.63
2018-11-02T15:41:59.674Z,5.63
2018-11-02T15:42:59.658Z,5.63
2018-11-02T15:44:52.765Z,5.63
2018-11-02T15:45:52.744Z,5.63
2018-11-02T15:47:45.840Z,5.63
2018-11-02T15:48:45.809Z,5.63
2018-11-02T15:50:38.915Z,0.00
2018-11-02T15:51:38.880Z,0.00
2018-11-02T15:53:31.974Z,0.00
2018-11-02T15:54:31.957Z,0.00
2018-11-02T15:56:25.057Z,0.00
2018-11-02T15:57:25.026Z,0.00
2018-11-02T15:59:18.112Z,0.00
2018-11-02T16:00:18.139Z,0.00
2018-11-02T16:02:11.196Z,0.00
2018-11-02T16:03:11.163Z,0.00
2018-11-02T16:05:04.258Z,0.00
2018-11-02T16:06:04.239Z,0.00
2018-11-02T16:07:57.365Z,0.00
2018-11-02T16:08:57.334Z,0.00
2018-11-02T16:10:50.446Z,0.00
2018-11-02T16:11:50.403Z,0.00
2018-11-02T16:13:43.510Z,0.00
2018-11-02T16:14:43.474Z,0.00
2018-11-02T16:16:36.567Z,0.00
2018-11-02T16:17:36.548Z,0.00
2018-11-02T16:19:29.646Z,0.00
2018-11-02T16:20:29.629Z,0.00
2018-11-02T16:22:22.722Z,0.00
2018-11-02T16:23:22.693Z,0.00
2018-11-02T16:25:15.822Z,0.00
2018-11-02T16:26:15.765Z,0.00
2018-11-02T16:28:08.856Z,0.00
2018-11-02T16:29:08.839Z,0.00
2018-11-02T16:31:01.945Z,0.00
2018-11-02T16:32:01.905Z,0.00
2018-11-02T16:33:55.028Z,0.00
2018-11-02T16:34:54.978Z,0.00
2018-11-02T16:36:48.074Z,0.00
2018-11-02T16:37:48.049Z,0.00
2018-11-02T16:39:41.140Z,0.00
2018-11-02T16:40:41.119Z,0.00
2018-11-02T16:42:34.221Z,0.00
2018-11-02T16:43:34.266Z,0.00
2018-11-02T16:45:27.282Z,0.00
2018-11-02T16:46:27.261Z,0.00
2018-11-02T16:48:20.372Z,0.00
2018-11-02T16:49:20.334Z,0.00
2018-11-02T16:51:13.425Z,0.00
2018-11-02T16:52:13.424Z,0.00
2018-11-02T16:54:06.508Z,0.00
2018-11-02T16:55:06.478Z,0.00
2018-11-02T16:56:59.575Z,0.00
2018-11-02T16:57:59.731Z,0.00
2018-11-02T16:59:52.660Z,0.00
2018-11-02T17:00:52.624Z,0.00
2018-11-02T17:02:45.715Z,0.00
2018-11-02T17:03:45.693Z,0.00
2018-11-02T17:05:38.797Z,0.00
2018-11-02T17:06:38.764Z,0.00
2018-11-02T17:08:31.855Z,0.00
2018-11-02T17:09:31.833Z,0.00
2018-11-02T17:11:24.986Z,0.00
2018-11-02T17:12:24.907Z,0.00
2018-11-02T17:14:17.997Z,0.00
2018-11-02T17:15:17.973Z,0.00
2018-11-02T17:17:11.089Z,0.00
2018-11-02T17:18:11.072Z,0.00
2018-11-02T17:20:04.146Z,0.00
2018-11-02T17:21:04.129Z,0.00
2018-11-02T17:22:57.237Z,0.00
2018-11-02T17:23:57.195Z,0.00
2018-11-02T17:25:50.285Z,0.00
2018-11-02T17:26:50.267Z,0.00
2018-11-02T17:28:43.363Z,0.00
2018-11-02T17:29:43.336Z,0.00
2018-11-02T17:31:36.427Z,0.00
2018-11-02T17:32:36.409Z,0.00
2018-11-02T17:34:29.509Z,0.00
2018-11-02T17:35:29.476Z,0.00
2018-11-02T17:37:22.667Z,0.00
2018-11-02T17:38:22.544Z,0.00
2018-11-02T17:40:15.644Z,0.00
2018-11-02T17:41:15.613Z,0.00
2018-11-02T17:43:08.706Z,0.00
2018-11-02T17:44:08.683Z,0.00
2018-11-02T17:46:01.788Z,0.00
2018-11-02T17:47:01.757Z,0.00
2018-11-02T17:48:54.893Z,0.00
2018-11-02T17:49:54.824Z,0.00
2018-11-02T17:51:47.934Z,0.00
2018-11-02T17:52:47.895Z,0.00
2018-11-02T17:54:40.986Z,0.00
2018-11-02T17:55:40.966Z,0.00
2018-11-02T17:57:34.065Z,0.00
2018-11-02T17:58:34.035Z,0.00
2018-11-02T18:00:27.128Z,0.00
2018-11-02T18:01:27.111Z,0.00
2018-11-02T18:03:20.206Z,0.00
2018-11-02T18:04:20.176Z,0.00
2018-11-02T18:06:13.353Z,0.00
2018-11-02T18:07:13.244Z,0.00
2018-11-02T18:09:06.391Z,0.00
2018-11-02T18:10:06.359Z,0.00
2018-11-02T18:11:59.461Z,0.00
2018-11-02T18:12:59.429Z,0.00
2018-11-02T18:14:52.550Z,0.00
2018-11-02T18:15:52.500Z,0.00
2018-11-02T18:17:45.589Z,0.00
2018-11-02T18:18:45.632Z,0.00
2018-11-02T18:20:38.666Z,0.00
2018-11-02T18:21:38.641Z,0.00
2018-11-02T18:23:31.731Z,0.00
2018-11-02T18:24:31.759Z,0.00
2018-11-02T18:26:24.827Z,0.00
2018-11-02T18:27:24.777Z,0.00
2018-11-02T18:29:17.873Z,0.00
2018-11-02T18:30:17.880Z,0.00
2018-11-02T18:32:10.956Z,0.00
2018-11-02T18:33:10.923Z,0.00
2018-11-02T18:35:04.025Z,0.00
2018-11-02T18:36:04.000Z,0.00
2018-11-02T18:37:57.100Z,0.00
2018-11-02T18:38:57.073Z,0.00
2018-11-02T18:40:50.181Z,0.00
2018-11-02T18:41:50.160Z,0.00
2018-11-02T18:43:43.279Z,0.00
2018-11-02T18:44:43.225Z,0.00
2018-11-02T18:46:36.322Z,0.00